sensor_id;sensor_type;location;lat;lon;timestamp;pressure;altitude;pressure_sealevel;temperature;humidity
54146;BME280;40052;49.422;7.738;2022-09-25T00:01:23;74290.81;;;-145.25;92.36
54146;BME280;40052;49.422;7.738;2022-09-25T00:03:51;74296.81;;;-145.25;92.36
54146;BME280;40052;49.422;7.738;2022-09-25T00:06:22;74300.84;;;-145.25;92.13
54146;BME280;40052;49.422;7.738;2022-09-25T00:08:48;74308.84;;;-145.25;92.29
54146;BME280;40052;49.422;7.738;2022-09-25T00:11:19;74310.84;;;-145.25;92.27
54146;BME280;40052;49.422;7.738;2022-09-25T00:13:46;74304.84;;;-145.25;92.71
54146;BME280;40052;49.422;7.738;2022-09-25T00:16:15;74304.84;;;-145.25;92.35
54146;BME280;40052;49.422;7.738;2022-09-25T00:18:43;74300.84;;;-145.25;91.96
54146;BME280;40052;49.422;7.738;2022-09-25T00:21:27;74302.84;;;-145.25;91.55
54146;BME280;40052;49.422;7.738;2022-09-25T00:23:56;74306.84;;;-145.25;91.55
54146;BME280;40052;49.422;7.738;2022-09-25T00:26:25;74304.84;;;-145.25;91.60
54146;BME280;40052;49.422;7.738;2022-09-25T00:28:52;74294.81;;;-145.25;91.14
54146;BME280;40052;49.422;7.738;2022-09-25T00:31:19;74298.81;;;-145.25;91.16
54146;BME280;40052;49.422;7.738;2022-09-25T00:33:51;74300.84;;;-145.25;91.71
54146;BME280;40052;49.422;7.738;2022-09-25T00:36:19;74304.84;;;-145.25;91.75
54146;BME280;40052;49.422;7.738;2022-09-25T00:38:47;74304.84;;;-145.25;92.27
54146;BME280;40052;49.422;7.738;2022-09-25T00:41:14;74304.84;;;-145.25;91.61
54146;BME280;40052;49.422;7.738;2022-09-25T00:43:54;74310.84;;;-145.25;92.57
54146;BME280;40052;49.422;7.738;2022-09-25T00:46:34;74308.84;;;-145.25;92.11
54146;BME280;40052;49.422;7.738;2022-09-25T00:49:05;74304.84;;;-145.25;91.63
54146;BME280;40052;49.422;7.738;2022-09-25T00:51:52;74296.81;;;-145.25;91.42
54146;BME280;40052;49.422;7.738;2022-09-25T00:54:36;74296.81;;;-145.25;91.42
54146;BME280;40052;49.422;7.738;2022-09-25T00:57:08;74296.81;;;-145.25;91.01
54146;BME280;40052;49.422;7.738;2022-09-25T00:59:38;74298.81;;;-145.25;91.32
54146;BME280;40052;49.422;7.738;2022-09-25T01:02:06;74296.81;;;-145.25;91.94
54146;BME280;40052;49.422;7.738;2022-09-25T01:04:39;74304.84;;;-145.25;92.47
54146;BME280;40052;49.422;7.738;2022-09-25T01:07:06;74308.84;;;-145.25;92.76
54146;BME280;40052;49.422;7.738;2022-09-25T01:09:33;74308.84;;;-145.25;93.02
54146;BME280;40052;49.422;7.738;2022-09-25T01:12:02;74306.84;;;-145.25;92.49
54146;BME280;40052;49.422;7.738;2022-09-25T01:14:30;74298.81;;;-145.25;92.22
54146;BME280;40052;49.422;7.738;2022-09-25T01:23:15;74306.84;;;-145.25;91.85
54146;BME280;40052;49.422;7.738;2022-09-25T01:28:55;74294.81;;;-145.25;92.63
54146;BME280;40052;49.422;7.738;2022-09-25T01:34:37;74304.84;;;-145.25;92.79
54146;BME280;40052;49.422;7.738;2022-09-25T01:39:58;74290.81;;;-145.25;92.27
54146;BME280;40052;49.422;7.738;2022-09-25T01:42:28;74292.81;;;-145.25;92.74
54146;BME280;40052;49.422;7.738;2022-09-25T01:45:03;74298.81;;;-145.25;92.60
54146;BME280;40052;49.422;7.738;2022-09-25T01:47:34;74302.84;;;-145.25;93.10
54146;BME280;40052;49.422;7.738;2022-09-25T01:50:07;74296.81;;;-145.25;93.48
54146;BME280;40052;49.422;7.738;2022-09-25T01:52:39;74294.81;;;-145.25;93.46
54146;BME280;40052;49.422;7.738;2022-09-25T01:58:01;74288.81;;;-145.25;93.02
54146;BME280;40052;49.422;7.738;2022-09-25T02:00:30;74280.78;;;-145.25;92.88
54146;BME280;40052;49.422;7.738;2022-09-25T02:03:00;74278.78;;;-145.25;92.93
54146;BME280;40052;49.422;7.738;2022-09-25T02:05:51;74274.78;;;-145.25;92.83
54146;BME280;40052;49.422;7.738;2022-09-25T02:08:27;74272.78;;;-145.25;92.95
54146;BME280;40052;49.422;7.738;2022-09-25T02:10:59;74266.75;;;-145.25;92.98
54146;BME280;40052;49.422;7.738;2022-09-25T02:13:35;74266.75;;;-145.25;92.85
54146;BME280;40052;49.422;7.738;2022-09-25T02:16:07;74270.78;;;-145.25;92.85
54146;BME280;40052;49.422;7.738;2022-09-25T02:18:34;74270.78;;;-145.25;92.48
54146;BME280;40052;49.422;7.738;2022-09-25T02:24:13;74282.78;;;-145.25;93.28
54146;BME280;40052;49.422;7.738;2022-09-25T02:26:44;74280.78;;;-145.25;93.03
54146;BME280;40052;49.422;7.738;2022-09-25T02:29:09;74288.81;;;-145.25;93.00
54146;BME280;40052;49.422;7.738;2022-09-25T02:31:59;74280.78;;;-145.25;93.07
54146;BME280;40052;49.422;7.738;2022-09-25T02:34:26;74278.78;;;-145.25;93.39
54146;BME280;40052;49.422;7.738;2022-09-25T02:36:52;74276.78;;;-145.25;93.51
54146;BME280;40052;49.422;7.738;2022-09-25T02:39:22;74268.78;;;-145.25;93.20
54146;BME280;40052;49.422;7.738;2022-09-25T02:50:10;74260.75;;;-145.25;93.20
54146;BME280;40052;49.422;7.738;2022-09-25T02:55:59;74254.75;;;-145.25;93.07
54146;BME280;40052;49.422;7.738;2022-09-25T02:58:26;74258.75;;;-145.25;92.66
54146;BME280;40052;49.422;7.738;2022-09-25T03:00:58;74268.78;;;-145.25;93.46
54146;BME280;40052;49.422;7.738;2022-09-25T03:03:27;74272.78;;;-145.25;93.75
54146;BME280;40052;49.422;7.738;2022-09-25T03:05:57;74282.78;;;-145.25;94.63
54146;BME280;40052;49.422;7.738;2022-09-25T03:08:26;74278.78;;;-145.25;95.18
54146;BME280;40052;49.422;7.738;2022-09-25T03:11:08;74278.78;;;-145.25;95.07
54146;BME280;40052;49.422;7.738;2022-09-25T03:13:39;74270.78;;;-145.25;95.59
54146;BME280;40052;49.422;7.738;2022-09-25T03:18:37;74270.78;;;-145.25;95.85
54146;BME280;40052;49.422;7.738;2022-09-25T03:21:03;74272.78;;;-145.25;95.46
54146;BME280;40052;49.422;7.738;2022-09-25T03:23:29;74272.78;;;-145.25;95.25
54146;BME280;40052;49.422;7.738;2022-09-25T03:25:57;74264.75;;;-145.25;94.84
54146;BME280;40052;49.422;7.738;2022-09-25T03:28:23;74278.78;;;-145.25;95.30
54146;BME280;40052;49.422;7.738;2022-09-25T03:31:00;74270.78;;;-145.25;94.52
54146;BME280;40052;49.422;7.738;2022-09-25T03:33:36;74270.78;;;-145.25;94.64
54146;BME280;40052;49.422;7.738;2022-09-25T03:36:10;74268.78;;;-145.25;94.56
54146;BME280;40052;49.422;7.738;2022-09-25T03:38:37;74270.78;;;-145.25;94.49
54146;BME280;40052;49.422;7.738;2022-09-25T03:41:04;74266.75;;;-145.25;94.43
54146;BME280;40052;49.422;7.738;2022-09-25T03:43:37;74264.75;;;-145.25;94.39
54146;BME280;40052;49.422;7.738;2022-09-25T03:46:11;74270.78;;;-145.25;94.51
54146;BME280;40052;49.422;7.738;2022-09-25T03:48:40;74272.78;;;-145.25;94.65
54146;BME280;40052;49.422;7.738;2022-09-25T03:51:08;74266.75;;;-145.25;94.20
54146;BME280;40052;49.422;7.738;2022-09-25T03:53:35;74268.78;;;-145.25;94.95
54146;BME280;40052;49.422;7.738;2022-09-25T03:56:03;74270.78;;;-145.25;94.62
54146;BME280;40052;49.422;7.738;2022-09-25T03:58:31;74262.75;;;-145.25;94.49
54146;BME280;40052;49.422;7.738;2022-09-25T04:00:59;74270.78;;;-145.25;94.88
54146;BME280;40052;49.422;7.738;2022-09-25T04:03:28;74266.75;;;-145.25;94.80
54146;BME280;40052;49.422;7.738;2022-09-25T04:06:01;74262.75;;;-145.25;94.57
54146;BME280;40052;49.422;7.738;2022-09-25T04:08:31;74260.75;;;-145.25;94.23
54146;BME280;40052;49.422;7.738;2022-09-25T04:11:00;74262.75;;;-145.25;94.48
54146;BME280;40052;49.422;7.738;2022-09-25T04:13:34;74264.75;;;-145.25;94.36
54146;BME280;40052;49.422;7.738;2022-09-25T04:16:04;74264.75;;;-145.25;94.92
54146;BME280;40052;49.422;7.738;2022-09-25T04:18:30;74258.75;;;-145.25;94.87
54146;BME280;40052;49.422;7.738;2022-09-25T04:21:00;74258.75;;;-145.25;94.32
54146;BME280;40052;49.422;7.738;2022-09-25T04:23:28;74266.75;;;-145.25;94.16
54146;BME280;40052;49.422;7.738;2022-09-25T04:25:57;74264.75;;;-145.25;94.04
54146;BME280;40052;49.422;7.738;2022-09-25T04:28:23;74272.78;;;-145.25;94.20
54146;BME280;40052;49.422;7.738;2022-09-25T04:30:51;74274.78;;;-145.25;94.43
54146;BME280;40052;49.422;7.738;2022-09-25T04:33:17;74270.78;;;-145.25;94.42
54146;BME280;40052;49.422;7.738;2022-09-25T04:36:02;74280.78;;;-145.25;95.38
54146;BME280;40052;49.422;7.738;2022-09-25T04:38:28;74268.78;;;-145.25;95.22
54146;BME280;40052;49.422;7.738;2022-09-25T04:40:59;74268.78;;;-145.25;95.15
54146;BME280;40052;49.422;7.738;2022-09-25T04:43:29;74268.78;;;-145.25;95.04
54146;BME280;40052;49.422;7.738;2022-09-25T04:46:03;74274.78;;;-145.25;95.03
54146;BME280;40052;49.422;7.738;2022-09-25T04:48:31;74276.78;;;-145.25;94.49
54146;BME280;40052;49.422;7.738;2022-09-25T04:50:59;74274.78;;;-145.25;94.84
54146;BME280;40052;49.422;7.738;2022-09-25T04:53:26;74270.78;;;-145.25;95.00
54146;BME280;40052;49.422;7.738;2022-09-25T04:55:52;74278.78;;;-145.25;94.46
54146;BME280;40052;49.422;7.738;2022-09-25T04:58:18;74274.78;;;-145.25;94.16
54146;BME280;40052;49.422;7.738;2022-09-25T05:00:46;74274.78;;;-145.25;94.33
54146;BME280;40052;49.422;7.738;2022-09-25T05:03:14;74272.78;;;-145.25;93.95
54146;BME280;40052;49.422;7.738;2022-09-25T05:05:44;74278.78;;;-145.25;94.28
54146;BME280;40052;49.422;7.738;2022-09-25T05:08:10;74270.78;;;-145.25;93.91
54146;BME280;40052;49.422;7.738;2022-09-25T05:10:37;74272.78;;;-145.25;94.10
54146;BME280;40052;49.422;7.738;2022-09-25T05:13:06;74272.78;;;-145.25;94.20
54146;BME280;40052;49.422;7.738;2022-09-25T05:15:36;74280.78;;;-145.25;94.51
54146;BME280;40052;49.422;7.738;2022-09-25T05:18:12;74278.78;;;-145.25;94.70
54146;BME280;40052;49.422;7.738;2022-09-25T05:20:39;74280.78;;;-145.25;95.09
54146;BME280;40052;49.422;7.738;2022-09-25T05:23:07;74282.78;;;-145.25;95.16
54146;BME280;40052;49.422;7.738;2022-09-25T05:25:33;74284.78;;;-145.25;95.21
54146;BME280;40052;49.422;7.738;2022-09-25T05:28:03;74284.78;;;-145.25;95.10
54146;BME280;40052;49.422;7.738;2022-09-25T05:30:31;74294.81;;;-145.25;96.18
54146;BME280;40052;49.422;7.738;2022-09-25T05:32:59;74290.81;;;-145.25;96.50
54146;BME280;40052;49.422;7.738;2022-09-25T05:35:29;74292.81;;;-145.25;96.16
54146;BME280;40052;49.422;7.738;2022-09-25T05:37:55;74292.81;;;-145.25;96.37
54146;BME280;40052;49.422;7.738;2022-09-25T05:40:21;74290.81;;;-145.25;97.16
54146;BME280;40052;49.422;7.738;2022-09-25T05:42:47;74304.84;;;-145.25;97.54
54146;BME280;40052;49.422;7.738;2022-09-25T05:45:14;74300.84;;;-145.25;98.11
54146;BME280;40052;49.422;7.738;2022-09-25T05:47:40;74304.84;;;-145.25;98.09
54146;BME280;40052;49.422;7.738;2022-09-25T05:50:11;74302.84;;;-145.25;98.22
54146;BME280;40052;49.422;7.738;2022-09-25T05:52:40;74300.84;;;-145.25;98.10
54146;BME280;40052;49.422;7.738;2022-09-25T05:55:08;74296.81;;;-145.25;98.48
54146;BME280;40052;49.422;7.738;2022-09-25T05:57:35;74302.84;;;-145.25;98.17
54146;BME280;40052;49.422;7.738;2022-09-25T06:00:05;74298.81;;;-145.25;97.72
54146;BME280;40052;49.422;7.738;2022-09-25T06:02:32;74304.84;;;-145.25;97.54
54146;BME280;40052;49.422;7.738;2022-09-25T06:04:57;74292.81;;;-145.25;97.08
54146;BME280;40052;49.422;7.738;2022-09-25T06:07:25;74300.84;;;-145.25;96.97
54146;BME280;40052;49.422;7.738;2022-09-25T06:09:50;74306.84;;;-145.25;96.95
54146;BME280;40052;49.422;7.738;2022-09-25T06:12:18;74302.84;;;-145.25;96.98
54146;BME280;40052;49.422;7.738;2022-09-25T06:14:43;74300.84;;;-145.25;96.85
54146;BME280;40052;49.422;7.738;2022-09-25T06:17:11;74298.81;;;-145.25;96.82
54146;BME280;40052;49.422;7.738;2022-09-25T06:19:41;74296.81;;;-145.25;96.54
54146;BME280;40052;49.422;7.738;2022-09-25T06:22:06;74292.81;;;-145.25;96.81
54146;BME280;40052;49.422;7.738;2022-09-25T06:24:32;74292.81;;;-145.25;96.31
54146;BME280;40052;49.422;7.738;2022-09-25T06:26:57;74298.81;;;-145.25;96.81
54146;BME280;40052;49.422;7.738;2022-09-25T06:29:22;74298.81;;;-145.25;96.80
54146;BME280;40052;49.422;7.738;2022-09-25T06:31:48;74292.81;;;-145.25;97.11
54146;BME280;40052;49.422;7.738;2022-09-25T06:34:16;74300.84;;;-145.25;97.26
54146;BME280;40052;49.422;7.738;2022-09-25T06:36:42;74302.84;;;-145.25;97.02
54146;BME280;40052;49.422;7.738;2022-09-25T06:39:09;74296.81;;;-145.25;97.54
54146;BME280;40052;49.422;7.738;2022-09-25T06:41:35;74296.81;;;-145.25;97.43
54146;BME280;40052;49.422;7.738;2022-09-25T06:44:01;74300.84;;;-145.25;97.61
54146;BME280;40052;49.422;7.738;2022-09-25T06:46:26;74304.84;;;-145.25;98.42
54146;BME280;40052;49.422;7.738;2022-09-25T06:48:55;74302.84;;;-145.25;98.47
54146;BME280;40052;49.422;7.738;2022-09-25T06:51:26;74298.81;;;-145.25;98.25
54146;BME280;40052;49.422;7.738;2022-09-25T06:53:57;74304.84;;;-145.25;98.38
54146;BME280;40052;49.422;7.738;2022-09-25T06:56:22;74306.84;;;-145.25;98.43
54146;BME280;40052;49.422;7.738;2022-09-25T06:58:48;74300.84;;;-145.25;98.32
54146;BME280;40052;49.422;7.738;2022-09-25T07:01:13;74300.84;;;-145.25;98.24
54146;BME280;40052;49.422;7.738;2022-09-25T07:03:39;74294.81;;;-145.25;98.31
54146;BME280;40052;49.422;7.738;2022-09-25T07:06:22;74296.81;;;-145.25;98.24
54146;BME280;40052;49.422;7.738;2022-09-25T07:08:52;74296.81;;;-145.25;98.36
54146;BME280;40052;49.422;7.738;2022-09-25T07:11:25;74292.81;;;-145.25;98.14
54146;BME280;40052;49.422;7.738;2022-09-25T07:13:53;74290.81;;;-145.25;98.08
54146;BME280;40052;49.422;7.738;2022-09-25T07:16:24;74290.81;;;-145.25;98.24
54146;BME280;40052;49.422;7.738;2022-09-25T07:18:53;74304.84;;;-145.25;97.83
54146;BME280;40052;49.422;7.738;2022-09-25T07:21:21;74290.81;;;-145.25;97.77
54146;BME280;40052;49.422;7.738;2022-09-25T07:23:52;74292.81;;;-145.25;97.67
54146;BME280;40052;49.422;7.738;2022-09-25T07:26:23;74288.81;;;-145.25;96.82
54146;BME280;40052;49.422;7.738;2022-09-25T07:29:03;74288.81;;;-145.25;96.75
54146;BME280;40052;49.422;7.738;2022-09-25T07:31:32;74284.78;;;-145.25;96.64
54146;BME280;40052;49.422;7.738;2022-09-25T07:33:59;74292.81;;;-145.25;96.98
54146;BME280;40052;49.422;7.738;2022-09-25T07:36:29;74280.78;;;-145.25;96.85
54146;BME280;40052;49.422;7.738;2022-09-25T07:38:55;74278.78;;;-145.25;97.05
54146;BME280;40052;49.422;7.738;2022-09-25T07:41:23;74296.81;;;-145.25;96.72
54146;BME280;40052;49.422;7.738;2022-09-25T07:43:55;74290.81;;;-145.25;97.18
54146;BME280;40052;49.422;7.738;2022-09-25T07:46:22;74274.78;;;-145.25;96.94
54146;BME280;40052;49.422;7.738;2022-09-25T07:48:48;74284.78;;;-145.25;96.39
54146;BME280;40052;49.422;7.738;2022-09-25T07:51:14;74280.78;;;-145.25;96.72
54146;BME280;40052;49.422;7.738;2022-09-25T07:53:40;74284.78;;;-145.25;96.92
54146;BME280;40052;49.422;7.738;2022-09-25T07:56:08;74276.78;;;-145.25;96.87
54146;BME280;40052;49.422;7.738;2022-09-25T07:58:34;74272.78;;;-145.25;96.31
54146;BME280;40052;49.422;7.738;2022-09-25T08:01:01;74274.78;;;-145.25;96.16
54146;BME280;40052;49.422;7.738;2022-09-25T08:03:27;74278.78;;;-145.25;96.62
54146;BME280;40052;49.422;7.738;2022-09-25T08:06:03;74278.78;;;-145.25;97.36
54146;BME280;40052;49.422;7.738;2022-09-25T08:08:30;74292.81;;;-145.25;97.03
54146;BME280;40052;49.422;7.738;2022-09-25T08:11:02;74294.81;;;-145.25;97.75
54146;BME280;40052;49.422;7.738;2022-09-25T08:13:31;74304.84;;;-145.25;97.15
54146;BME280;40052;49.422;7.738;2022-09-25T08:15:56;74304.84;;;-145.25;97.87
54146;BME280;40052;49.422;7.738;2022-09-25T08:18:26;74304.84;;;-145.25;97.75
54146;BME280;40052;49.422;7.738;2022-09-25T08:20:51;74298.81;;;-145.25;97.72
54146;BME280;40052;49.422;7.738;2022-09-25T08:23:17;74292.81;;;-145.25;97.00
54146;BME280;40052;49.422;7.738;2022-09-25T08:25:48;74304.84;;;-145.25;96.85
54146;BME280;40052;49.422;7.738;2022-09-25T08:28:14;74302.84;;;-145.25;97.81
54146;BME280;40052;49.422;7.738;2022-09-25T08:30:40;74294.81;;;-145.25;97.57
54146;BME280;40052;49.422;7.738;2022-09-25T08:33:11;74284.78;;;-145.25;97.99
54146;BME280;40052;49.422;7.738;2022-09-25T08:35:37;74268.78;;;-145.25;97.97
54146;BME280;40052;49.422;7.738;2022-09-25T08:38:03;74256.75;;;-145.25;97.40
54146;BME280;40052;49.422;7.738;2022-09-25T08:40:30;74250.72;;;-145.25;96.36
54146;BME280;40052;49.422;7.738;2022-09-25T08:42:56;74250.72;;;-145.25;95.63
54146;BME280;40052;49.422;7.738;2022-09-25T08:45:32;74264.75;;;-145.25;95.00
54146;BME280;40052;49.422;7.738;2022-09-25T08:48:29;74266.75;;;-145.25;96.60
54146;BME280;40052;49.422;7.738;2022-09-25T08:51:16;74262.75;;;-145.25;96.52
54146;BME280;40052;49.422;7.738;2022-09-25T08:53:42;74264.75;;;-145.25;96.28
54146;BME280;40052;49.422;7.738;2022-09-25T08:56:12;74260.75;;;-145.25;95.13
54146;BME280;40052;49.422;7.738;2022-09-25T08:58:48;74260.75;;;-145.25;94.54
54146;BME280;40052;49.422;7.738;2022-09-25T09:06:49;74196.63;;;-145.25;93.25
54146;BME280;40052;49.422;7.738;2022-09-25T09:09:20;74184.63;;;-145.25;91.42
54146;BME280;40052;49.422;7.738;2022-09-25T09:12:04;74176.59;;;-145.25;90.37
54146;BME280;40052;49.422;7.738;2022-09-25T09:14:37;74152.56;;;-145.25;88.61
54146;BME280;40052;49.422;7.738;2022-09-25T09:17:08;74164.56;;;-145.25;87.78
54146;BME280;40052;49.422;7.738;2022-09-25T09:19:36;74170.59;;;-145.25;86.97
54146;BME280;40052;49.422;7.738;2022-09-25T09:22:12;74176.59;;;-145.25;86.52
54146;BME280;40052;49.422;7.738;2022-09-25T09:27:44;74186.63;;;-145.25;87.49
54146;BME280;40052;49.422;7.738;2022-09-25T09:30:16;74172.59;;;-145.25;87.80
54146;BME280;40052;49.422;7.738;2022-09-25T09:35:26;74178.59;;;-145.25;88.51
54146;BME280;40052;49.422;7.738;2022-09-25T09:40:24;74176.59;;;-145.25;87.63
54146;BME280;40052;49.422;7.738;2022-09-25T09:45:49;74186.63;;;-145.25;87.25
54146;BME280;40052;49.422;7.738;2022-09-25T09:48:39;74188.63;;;-145.25;90.29
54146;BME280;40052;49.422;7.738;2022-09-25T09:51:18;74198.63;;;-145.25;92.02
54146;BME280;40052;49.422;7.738;2022-09-25T09:53:47;74202.66;;;-145.25;92.90
54146;BME280;40052;49.422;7.738;2022-09-25T09:56:20;74208.66;;;-145.25;93.51
54146;BME280;40052;49.422;7.738;2022-09-25T09:58:58;74208.66;;;-145.25;93.20
54146;BME280;40052;49.422;7.738;2022-09-25T10:01:31;74214.66;;;-145.25;93.00
54146;BME280;40052;49.422;7.738;2022-09-25T10:06:36;74208.66;;;-145.25;92.72
54146;BME280;40052;49.422;7.738;2022-09-25T10:09:03;74208.66;;;-145.25;93.15
54146;BME280;40052;49.422;7.738;2022-09-25T10:11:30;74194.63;;;-145.25;93.84
54146;BME280;40052;49.422;7.738;2022-09-25T10:13:58;74192.63;;;-145.25;93.10
54146;BME280;40052;49.422;7.738;2022-09-25T10:16:28;74186.63;;;-145.25;93.02
54146;BME280;40052;49.422;7.738;2022-09-25T10:29:44;74150.53;;;-145.25;90.08
54146;BME280;40052;49.422;7.738;2022-09-25T10:32:10;74148.53;;;-145.25;91.28
54146;BME280;40052;49.422;7.738;2022-09-25T10:34:52;74152.56;;;-145.25;92.10
54146;BME280;40052;49.422;7.738;2022-09-25T10:37:19;74160.56;;;-145.25;90.65
54146;BME280;40052;49.422;7.738;2022-09-25T10:40:00;74138.53;;;-145.25;90.22
54146;BME280;40052;49.422;7.738;2022-09-25T10:42:39;74132.50;;;-145.25;88.53
54146;BME280;40052;49.422;7.738;2022-09-25T10:47:59;74074.41;;;-145.25;87.90
54146;BME280;40052;49.422;7.738;2022-09-25T10:51:04;74024.31;;;-145.25;84.42
54146;BME280;40052;49.422;7.738;2022-09-25T10:53:35;74012.28;;;-145.25;84.72
54146;BME280;40052;49.422;7.738;2022-09-25T10:56:05;74022.31;;;-145.25;83.48
54146;BME280;40052;49.422;7.738;2022-09-25T11:01:10;74008.28;;;-145.25;83.74
54146;BME280;40052;49.422;7.738;2022-09-25T11:03:59;74000.28;;;-145.25;84.82
54146;BME280;40052;49.422;7.738;2022-09-25T11:06:28;74000.28;;;-145.25;82.08
54146;BME280;40052;49.422;7.738;2022-09-25T11:11:36;73988.25;;;-145.25;81.24
54146;BME280;40052;49.422;7.738;2022-09-25T11:14:13;73992.25;;;-145.25;81.17
54146;BME280;40052;49.422;7.738;2022-09-25T11:16:55;74012.28;;;-145.25;81.81
54146;BME280;40052;49.422;7.738;2022-09-25T11:21:59;74044.34;;;-145.25;83.34
54146;BME280;40052;49.422;7.738;2022-09-25T11:27:19;74066.41;;;-145.25;83.09
54146;BME280;40052;49.422;7.738;2022-09-25T11:30:08;74090.44;;;-145.25;82.12
54146;BME280;40052;49.422;7.738;2022-09-25T11:35:44;74140.53;;;-145.25;87.40
54146;BME280;40052;49.422;7.738;2022-09-25T11:40:53;74150.53;;;-145.25;90.54
54146;BME280;40052;49.422;7.738;2022-09-25T11:47:11;74156.56;;;-145.25;90.42
54146;BME280;40052;49.422;7.738;2022-09-25T11:49:46;74154.56;;;-145.25;91.83
54146;BME280;40052;49.422;7.738;2022-09-25T12:11:04;74122.50;;;-145.25;92.78
54146;BME280;40052;49.422;7.738;2022-09-25T12:25:11;74086.44;;;-145.25;90.72
54146;BME280;40052;49.422;7.738;2022-09-25T12:27:51;74076.41;;;-145.25;89.71
54146;BME280;40052;49.422;7.738;2022-09-25T12:30:30;74082.44;;;-145.25;88.58
54146;BME280;40052;49.422;7.738;2022-09-25T12:35:48;74040.34;;;-145.25;88.37
54146;BME280;40052;49.422;7.738;2022-09-25T12:41:42;74028.31;;;-145.25;88.26
54146;BME280;40052;49.422;7.738;2022-09-25T12:46:53;74044.34;;;-145.25;88.41
54146;BME280;40052;49.422;7.738;2022-09-25T12:51:54;74048.38;;;-145.25;87.86
54146;BME280;40052;49.422;7.738;2022-09-25T12:57:17;74086.44;;;-145.25;88.52
54146;BME280;40052;49.422;7.738;2022-09-25T12:59:51;74146.53;;;-145.25;90.99
54146;BME280;40052;49.422;7.738;2022-09-25T13:02:33;74164.56;;;-145.25;91.72
54146;BME280;40052;49.422;7.738;2022-09-25T13:05:18;74194.63;;;-145.25;90.75
54146;BME280;40052;49.422;7.738;2022-09-25T13:10:57;74280.78;;;-145.25;90.79
54146;BME280;40052;49.422;7.738;2022-09-25T13:13:27;74302.84;;;-145.25;91.09
54146;BME280;40052;49.422;7.738;2022-09-25T13:16:00;74324.88;;;-145.25;92.71
54146;BME280;40052;49.422;7.738;2022-09-25T13:18:30;74322.88;;;-145.25;93.70
54146;BME280;40052;49.422;7.738;2022-09-25T13:21:23;74328.88;;;-145.25;94.74
54146;BME280;40052;49.422;7.738;2022-09-25T13:23:50;74336.91;;;-145.25;94.69
54146;BME280;40052;49.422;7.738;2022-09-25T13:26:21;74346.91;;;-145.25;95.38
54146;BME280;40052;49.422;7.738;2022-09-25T13:29:06;74344.91;;;-145.25;96.08
54146;BME280;40052;49.422;7.738;2022-09-25T13:31:38;74340.91;;;-145.25;96.33
54146;BME280;40052;49.422;7.738;2022-09-25T13:34:12;74342.91;;;-145.25;95.85
54146;BME280;40052;49.422;7.738;2022-09-25T13:36:53;74350.94;;;-145.25;96.11
54146;BME280;40052;49.422;7.738;2022-09-25T13:39:36;74366.94;;;-145.25;96.63
54146;BME280;40052;49.422;7.738;2022-09-25T13:45:00;74362.94;;;-145.25;97.17
54146;BME280;40052;49.422;7.738;2022-09-25T13:47:41;74356.94;;;-145.25;97.41
54146;BME280;40052;49.422;7.738;2022-09-25T14:00:50;74382.97;;;-145.25;97.52
54146;BME280;40052;49.422;7.738;2022-09-25T14:06:12;74374.97;;;-145.25;97.20
54146;BME280;40052;49.422;7.738;2022-09-25T14:08:40;74368.97;;;-145.25;98.04
54146;BME280;40052;49.422;7.738;2022-09-25T14:11:11;74376.97;;;-145.25;97.38
54146;BME280;40052;49.422;7.738;2022-09-25T14:13:42;74372.97;;;-145.25;97.40
54146;BME280;40052;49.422;7.738;2022-09-25T14:16:42;74364.94;;;-145.25;97.19
54146;BME280;40052;49.422;7.738;2022-09-25T14:19:17;74354.94;;;-145.25;97.28
54146;BME280;40052;49.422;7.738;2022-09-25T14:21:45;74340.91;;;-145.25;96.50
54146;BME280;40052;49.422;7.738;2022-09-25T14:24:32;74326.88;;;-145.25;96.42
54146;BME280;40052;49.422;7.738;2022-09-25T14:27:01;74326.88;;;-145.25;96.00
54146;BME280;40052;49.422;7.738;2022-09-25T14:29:30;74322.88;;;-145.25;95.81
54146;BME280;40052;49.422;7.738;2022-09-25T14:32:17;74320.88;;;-145.25;95.66
54146;BME280;40052;49.422;7.738;2022-09-25T14:34:58;74328.88;;;-145.25;95.87
54146;BME280;40052;49.422;7.738;2022-09-25T14:40:49;74366.94;;;-145.25;96.36
54146;BME280;40052;49.422;7.738;2022-09-25T14:48:14;74368.97;;;-145.25;96.80
54146;BME280;40052;49.422;7.738;2022-09-25T14:50:52;74376.97;;;-145.25;95.74
54146;BME280;40052;49.422;7.738;2022-09-25T14:54:00;74372.97;;;-145.25;95.85
54146;BME280;40052;49.422;7.738;2022-09-25T14:56:19;74374.97;;;-145.25;95.83
54146;BME280;40052;49.422;7.738;2022-09-25T14:58:52;74368.97;;;-145.25;96.11
54146;BME280;40052;49.422;7.738;2022-09-25T15:01:28;74344.91;;;-145.25;96.76
54146;BME280;40052;49.422;7.738;2022-09-25T15:03:58;74276.78;;;-145.25;99.02
54146;BME280;40052;49.422;7.738;2022-09-25T15:06:33;74228.69;;;-145.25;99.43
54146;BME280;40052;49.422;7.738;2022-09-25T15:08:59;74272.78;;;-145.25;95.98
54146;BME280;40052;49.422;7.738;2022-09-25T15:11:42;74300.84;;;-145.25;93.79
54146;BME280;40052;49.422;7.738;2022-09-25T15:14:17;74322.88;;;-145.25;93.85
54146;BME280;40052;49.422;7.738;2022-09-25T15:16:48;74328.88;;;-145.25;95.03
54146;BME280;40052;49.422;7.738;2022-09-25T15:19:41;74344.91;;;-145.25;95.19
54146;BME280;40052;49.422;7.738;2022-09-25T15:22:19;74348.91;;;-145.25;95.54
54146;BME280;40052;49.422;7.738;2022-09-25T15:24:52;74356.94;;;-145.25;95.50
54146;BME280;40052;49.422;7.738;2022-09-25T15:27:19;74360.94;;;-145.25;95.45
54146;BME280;40052;49.422;7.738;2022-09-25T15:29:46;74362.94;;;-145.25;95.76
54146;BME280;40052;49.422;7.738;2022-09-25T15:32:37;74372.97;;;-145.25;95.31
54146;BME280;40052;49.422;7.738;2022-09-25T15:35:15;74356.94;;;-145.25;95.97
54146;BME280;40052;49.422;7.738;2022-09-25T15:37:45;74344.91;;;-145.25;96.26
54146;BME280;40052;49.422;7.738;2022-09-25T15:42:46;74332.88;;;-145.25;95.71
54146;BME280;40052;49.422;7.738;2022-09-25T15:50:41;74324.88;;;-145.25;95.57